Huvudsida
METAR-TAF:

METAR-TAF

Flygplatser :

Kulob, Tadzjikistan

latitud: 37-59-18N, longitud: 069-48-18E, höjd: 699 m

Aktuellt väderrapport

Denna rapport gjordes för 26 minuter sedan, klockan 15:30 UTC
Vind 14 kt från ost, varierande mellan nordost och sydost
Temperatur 23°C
Fuktighet 50%
Tryck 1015 hPa
Sikt 10 km eller mer
Spridda moln på en höjd av 5200 ft, Cumulonimbus.
Mulet på en höjd av 7200 ft
åska, lätt regn

METAR: UTDK 271530Z 09007MPS 040V130 9999 -TSRA SCT052CB OVC072 23/12 Q1015 R01/29//50 RMK QFE704/0939

Tid: 20:56 (15:56 UTC)


TAF: saknas

Aktuella väderrapporter och prognoser från 4000 flygplatser (METAR- och TAF-rapporter).

De tillgängliga stationerna syns som gula och röda prickar på kartan.

För musen över prickarna för att se namnen på stationerna.

Klicka sedan för att få väderrapporter och prognoser.

För att ändra kartan: Klicka på de gröna knapparna med ett svart kors på för att zooma in; den gröna knappen med ett streck på för att zooma ut; eller på de gröna pilarna för angränsande kartor.


METAR-TAF: